sensor_id;sensor_type;location;lat;lon;timestamp;P1;durP1;ratioP1;P2;durP2;ratioP2
84662;SDS011;74891;59.208;18.220;2024-01-27T00:01:31;3.00;;;1.40;;
84662;SDS011;74891;59.208;18.220;2024-01-27T00:04:04;4.93;;;1.73;;
84662;SDS011;74891;59.208;18.220;2024-01-27T00:06:32;3.40;;;1.25;;
84662;SDS011;74891;59.208;18.220;2024-01-27T00:09:00;3.05;;;1.33;;
84662;SDS011;74891;59.208;18.220;2024-01-27T00:11:26;3.10;;;1.30;;
84662;SDS011;74891;59.208;18.220;2024-01-27T00:13:54;1.92;;;1.20;;
84662;SDS011;74891;59.208;18.220;2024-01-27T00:16:19;2.40;;;1.20;;
84662;SDS011;74891;59.208;18.220;2024-01-27T00:18:45;3.25;;;1.17;;
84662;SDS011;74891;59.208;18.220;2024-01-27T00:21:13;2.20;;;1.38;;
84662;SDS011;74891;59.208;18.220;2024-01-27T00:23:42;3.15;;;1.33;;
84662;SDS011;74891;59.208;18.220;2024-01-27T00:26:07;4.47;;;1.70;;
84662;SDS011;74891;59.208;18.220;2024-01-27T00:28:35;6.28;;;1.83;;
84662;SDS011;74891;59.208;18.220;2024-01-27T00:31:01;2.90;;;1.50;;
84662;SDS011;74891;59.208;18.220;2024-01-27T00:33:26;4.10;;;1.40;;
84662;SDS011;74891;59.208;18.220;2024-01-27T00:35:52;3.95;;;1.85;;
84662;SDS011;74891;59.208;18.220;2024-01-27T00:38:17;5.65;;;2.08;;
84662;SDS011;74891;59.208;18.220;2024-01-27T00:40:43;2.45;;;1.80;;
84662;SDS011;74891;59.208;18.220;2024-01-27T00:43:08;4.30;;;2.22;;
84662;SDS011;74891;59.208;18.220;2024-01-27T00:45:34;3.55;;;2.10;;
84662;SDS011;74891;59.208;18.220;2024-01-27T00:47:59;3.83;;;2.03;;
84662;SDS011;74891;59.208;18.220;2024-01-27T00:50:28;4.95;;;2.08;;
84662;SDS011;74891;59.208;18.220;2024-01-27T00:52:53;3.33;;;1.98;;
84662;SDS011;74891;59.208;18.220;2024-01-27T00:55:19;3.95;;;1.88;;
84662;SDS011;74891;59.208;18.220;2024-01-27T00:57:44;2.50;;;1.55;;
84662;SDS011;74891;59.208;18.220;2024-01-27T01:00:13;3.22;;;1.67;;
84662;SDS011;74891;59.208;18.220;2024-01-27T01:02:39;3.85;;;1.80;;
84662;SDS011;74891;59.208;18.220;2024-01-27T01:05:05;3.22;;;1.92;;
84662;SDS011;74891;59.208;18.220;2024-01-27T01:07:31;3.33;;;1.77;;
84662;SDS011;74891;59.208;18.220;2024-01-27T01:10:01;4.18;;;1.83;;
84662;SDS011;74891;59.208;18.220;2024-01-27T01:12:29;3.45;;;1.50;;
84662;SDS011;74891;59.208;18.220;2024-01-27T01:14:56;3.47;;;1.92;;
84662;SDS011;74891;59.208;18.220;2024-01-27T01:17:22;2.92;;;1.98;;
84662;SDS011;74891;59.208;18.220;2024-01-27T01:19:47;3.42;;;1.75;;
84662;SDS011;74891;59.208;18.220;2024-01-27T01:22:13;2.75;;;1.60;;
84662;SDS011;74891;59.208;18.220;2024-01-27T01:24:38;3.35;;;1.77;;
84662;SDS011;74891;59.208;18.220;2024-01-27T01:27:04;2.85;;;1.85;;
84662;SDS011;74891;59.208;18.220;2024-01-27T01:29:32;2.50;;;1.50;;
84662;SDS011;74891;59.208;18.220;2024-01-27T01:32:00;3.55;;;1.80;;
84662;SDS011;74891;59.208;18.220;2024-01-27T01:34:30;3.05;;;1.70;;
84662;SDS011;74891;59.208;18.220;2024-01-27T01:36:59;3.50;;;2.13;;
84662;SDS011;74891;59.208;18.220;2024-01-27T01:39:27;3.38;;;1.80;;
84662;SDS011;74891;59.208;18.220;2024-01-27T01:41:52;3.40;;;1.90;;
84662;SDS011;74891;59.208;18.220;2024-01-27T01:44:18;5.60;;;2.13;;
84662;SDS011;74891;59.208;18.220;2024-01-27T01:46:43;4.53;;;1.85;;
84662;SDS011;74891;59.208;18.220;2024-01-27T01:49:08;7.03;;;2.22;;
84662;SDS011;74891;59.208;18.220;2024-01-27T01:51:38;3.65;;;2.13;;
84662;SDS011;74891;59.208;18.220;2024-01-27T01:54:04;3.85;;;2.17;;
84662;SDS011;74891;59.208;18.220;2024-01-27T01:56:35;5.53;;;2.50;;
84662;SDS011;74891;59.208;18.220;2024-01-27T01:59:04;4.28;;;2.10;;
84662;SDS011;74891;59.208;18.220;2024-01-27T02:01:32;5.22;;;2.50;;
84662;SDS011;74891;59.208;18.220;2024-01-27T02:03:59;6.25;;;2.60;;
84662;SDS011;74891;59.208;18.220;2024-01-27T02:06:25;4.65;;;2.50;;
84662;SDS011;74891;59.208;18.220;2024-01-27T02:08:50;5.88;;;2.38;;
84662;SDS011;74891;59.208;18.220;2024-01-27T02:11:16;5.25;;;2.58;;
84662;SDS011;74891;59.208;18.220;2024-01-27T02:13:42;5.82;;;2.55;;
84662;SDS011;74891;59.208;18.220;2024-01-27T02:16:14;6.38;;;2.72;;
84662;SDS011;74891;59.208;18.220;2024-01-27T02:18:42;5.57;;;2.63;;
84662;SDS011;74891;59.208;18.220;2024-01-27T02:21:13;5.35;;;2.58;;
84662;SDS011;74891;59.208;18.220;2024-01-27T02:23:39;5.15;;;2.30;;
84662;SDS011;74891;59.208;18.220;2024-01-27T02:26:07;7.25;;;2.58;;
84662;SDS011;74891;59.208;18.220;2024-01-27T02:28:33;5.03;;;2.38;;
84662;SDS011;74891;59.208;18.220;2024-01-27T02:31:03;7.63;;;3.03;;
84662;SDS011;74891;59.208;18.220;2024-01-27T02:33:28;4.90;;;2.08;;
84662;SDS011;74891;59.208;18.220;2024-01-27T02:35:58;5.72;;;2.53;;
84662;SDS011;74891;59.208;18.220;2024-01-27T02:38:23;7.38;;;2.25;;
84662;SDS011;74891;59.208;18.220;2024-01-27T02:40:54;7.68;;;3.33;;
84662;SDS011;74891;59.208;18.220;2024-01-27T02:43:20;6.50;;;2.63;;
84662;SDS011;74891;59.208;18.220;2024-01-27T02:45:45;8.73;;;2.67;;
84662;SDS011;74891;59.208;18.220;2024-01-27T02:48:16;6.82;;;2.65;;
84662;SDS011;74891;59.208;18.220;2024-01-27T02:50:42;8.93;;;3.20;;
84662;SDS011;74891;59.208;18.220;2024-01-27T02:53:11;6.13;;;3.25;;
84662;SDS011;74891;59.208;18.220;2024-01-27T02:55:38;5.88;;;2.67;;
84662;SDS011;74891;59.208;18.220;2024-01-27T02:58:06;6.90;;;3.33;;
84662;SDS011;74891;59.208;18.220;2024-01-27T03:00:31;7.95;;;3.13;;
84662;SDS011;74891;59.208;18.220;2024-01-27T03:03:04;5.82;;;2.83;;
84662;SDS011;74891;59.208;18.220;2024-01-27T03:07:58;8.80;;;2.87;;
84662;SDS011;74891;59.208;18.220;2024-01-27T03:10:23;8.05;;;3.08;;
84662;SDS011;74891;59.208;18.220;2024-01-27T03:12:51;8.52;;;3.35;;
84662;SDS011;74891;59.208;18.220;2024-01-27T03:15:17;7.10;;;3.25;;
84662;SDS011;74891;59.208;18.220;2024-01-27T03:17:43;7.18;;;3.10;;
84662;SDS011;74891;59.208;18.220;2024-01-27T03:20:11;8.52;;;3.03;;
84662;SDS011;74891;59.208;18.220;2024-01-27T03:22:36;8.82;;;2.80;;
84662;SDS011;74891;59.208;18.220;2024-01-27T03:25:08;5.68;;;2.85;;
84662;SDS011;74891;59.208;18.220;2024-01-27T03:27:40;4.20;;;2.00;;
84662;SDS011;74891;59.208;18.220;2024-01-27T03:30:09;6.85;;;2.45;;
84662;SDS011;74891;59.208;18.220;2024-01-27T03:35:07;4.32;;;1.75;;
84662;SDS011;74891;59.208;18.220;2024-01-27T03:37:40;3.35;;;1.58;;
84662;SDS011;74891;59.208;18.220;2024-01-27T03:40:05;2.67;;;1.40;;
84662;SDS011;74891;59.208;18.220;2024-01-27T03:42:36;2.70;;;1.48;;
84662;SDS011;74891;59.208;18.220;2024-01-27T03:45:04;2.67;;;1.20;;
84662;SDS011;74891;59.208;18.220;2024-01-27T03:47:33;2.25;;;1.10;;
84662;SDS011;74891;59.208;18.220;2024-01-27T03:50:02;1.70;;;1.00;;
84662;SDS011;74891;59.208;18.220;2024-01-27T03:52:30;2.63;;;1.25;;
84662;SDS011;74891;59.208;18.220;2024-01-27T03:54:56;2.63;;;1.20;;
84662;SDS011;74891;59.208;18.220;2024-01-27T03:57:21;1.20;;;0.80;;
84662;SDS011;74891;59.208;18.220;2024-01-27T03:59:50;1.77;;;0.90;;
84662;SDS011;74891;59.208;18.220;2024-01-27T04:02:21;2.03;;;1.00;;
84662;SDS011;74891;59.208;18.220;2024-01-27T04:04:47;1.83;;;1.20;;
84662;SDS011;74891;59.208;18.220;2024-01-27T04:07:15;2.00;;;1.30;;
84662;SDS011;74891;59.208;18.220;2024-01-27T04:09:42;1.63;;;1.00;;
84662;SDS011;74891;59.208;18.220;2024-01-27T04:12:07;1.02;;;0.90;;
84662;SDS011;74891;59.208;18.220;2024-01-27T04:14:34;1.45;;;0.98;;
84662;SDS011;74891;59.208;18.220;2024-01-27T04:16:59;1.90;;;1.10;;
84662;SDS011;74891;59.208;18.220;2024-01-27T04:19:25;1.58;;;0.93;;
84662;SDS011;74891;59.208;18.220;2024-01-27T04:21:50;1.98;;;1.20;;
84662;SDS011;74891;59.208;18.220;2024-01-27T04:24:15;1.52;;;1.13;;
84662;SDS011;74891;59.208;18.220;2024-01-27T04:26:43;1.27;;;0.93;;
84662;SDS011;74891;59.208;18.220;2024-01-27T04:29:09;1.85;;;1.20;;
84662;SDS011;74891;59.208;18.220;2024-01-27T04:31:40;1.98;;;0.80;;
84662;SDS011;74891;59.208;18.220;2024-01-27T04:34:08;1.70;;;1.05;;
84662;SDS011;74891;59.208;18.220;2024-01-27T04:36:36;1.80;;;1.10;;
84662;SDS011;74891;59.208;18.220;2024-01-27T04:39:04;1.27;;;0.90;;
84662;SDS011;74891;59.208;18.220;2024-01-27T04:41:29;0.95;;;0.70;;
84662;SDS011;74891;59.208;18.220;2024-01-27T04:43:54;1.33;;;0.80;;
84662;SDS011;74891;59.208;18.220;2024-01-27T04:46:22;1.65;;;1.10;;
84662;SDS011;74891;59.208;18.220;2024-01-27T04:48:50;1.10;;;0.85;;
84662;SDS011;74891;59.208;18.220;2024-01-27T04:51:16;0.88;;;0.82;;
84662;SDS011;74891;59.208;18.220;2024-01-27T04:53:41;2.33;;;0.95;;
84662;SDS011;74891;59.208;18.220;2024-01-27T04:56:13;0.98;;;0.85;;
84662;SDS011;74891;59.208;18.220;2024-01-27T04:58:44;2.35;;;1.10;;
84662;SDS011;74891;59.208;18.220;2024-01-27T05:06:21;1.40;;;0.82;;
84662;SDS011;74891;59.208;18.220;2024-01-27T05:08:49;1.02;;;0.82;;
84662;SDS011;74891;59.208;18.220;2024-01-27T05:11:15;1.02;;;0.82;;
84662;SDS011;74891;59.208;18.220;2024-01-27T05:13:42;1.20;;;0.90;;
84662;SDS011;74891;59.208;18.220;2024-01-27T05:16:08;1.05;;;0.73;;
84662;SDS011;74891;59.208;18.220;2024-01-27T05:23:39;1.75;;;1.30;;
84662;SDS011;74891;59.208;18.220;2024-01-27T05:26:06;2.42;;;0.90;;
84662;SDS011;74891;59.208;18.220;2024-01-27T05:28:31;1.45;;;1.10;;
84662;SDS011;74891;59.208;18.220;2024-01-27T05:31:00;3.33;;;0.75;;
84662;SDS011;74891;59.208;18.220;2024-01-27T05:33:31;1.55;;;0.93;;
84662;SDS011;74891;59.208;18.220;2024-01-27T05:35:59;1.25;;;0.98;;
84662;SDS011;74891;59.208;18.220;2024-01-27T05:38:27;1.42;;;1.10;;
84662;SDS011;74891;59.208;18.220;2024-01-27T05:40:55;1.17;;;1.00;;
84662;SDS011;74891;59.208;18.220;2024-01-27T05:43:25;1.23;;;0.90;;
84662;SDS011;74891;59.208;18.220;2024-01-27T05:45:51;3.22;;;1.38;;
84662;SDS011;74891;59.208;18.220;2024-01-27T05:48:16;1.55;;;1.10;;
84662;SDS011;74891;59.208;18.220;2024-01-27T05:50:42;1.50;;;1.00;;
84662;SDS011;74891;59.208;18.220;2024-01-27T05:53:08;1.20;;;1.00;;
84662;SDS011;74891;59.208;18.220;2024-01-27T05:55:34;1.40;;;0.98;;
84662;SDS011;74891;59.208;18.220;2024-01-27T05:58:02;1.55;;;1.10;;
84662;SDS011;74891;59.208;18.220;2024-01-27T06:00:27;1.40;;;1.00;;
84662;SDS011;74891;59.208;18.220;2024-01-27T06:02:53;1.05;;;0.80;;
84662;SDS011;74891;59.208;18.220;2024-01-27T06:05:19;1.52;;;0.90;;
84662;SDS011;74891;59.208;18.220;2024-01-27T06:07:45;0.80;;;0.70;;
84662;SDS011;74891;59.208;18.220;2024-01-27T06:10:11;1.88;;;0.95;;
84662;SDS011;74891;59.208;18.220;2024-01-27T06:12:37;1.27;;;0.70;;
84662;SDS011;74891;59.208;18.220;2024-01-27T06:15:04;1.52;;;0.80;;
84662;SDS011;74891;59.208;18.220;2024-01-27T06:17:31;1.02;;;0.75;;
84662;SDS011;74891;59.208;18.220;2024-01-27T06:19:56;1.52;;;0.77;;
84662;SDS011;74891;59.208;18.220;2024-01-27T06:22:21;1.50;;;1.10;;
84662;SDS011;74891;59.208;18.220;2024-01-27T06:24:47;1.00;;;0.82;;
84662;SDS011;74891;59.208;18.220;2024-01-27T06:27:12;1.98;;;1.00;;
84662;SDS011;74891;59.208;18.220;2024-01-27T06:29:38;2.63;;;1.03;;
84662;SDS011;74891;59.208;18.220;2024-01-27T06:32:05;1.42;;;1.10;;
84662;SDS011;74891;59.208;18.220;2024-01-27T06:34:31;2.00;;;1.42;;
84662;SDS011;74891;59.208;18.220;2024-01-27T06:37:00;2.42;;;1.30;;
84662;SDS011;74891;59.208;18.220;2024-01-27T06:39:28;2.58;;;1.00;;
84662;SDS011;74891;59.208;18.220;2024-01-27T06:44:23;1.85;;;0.95;;
84662;SDS011;74891;59.208;18.220;2024-01-27T06:46:48;1.58;;;1.00;;
84662;SDS011;74891;59.208;18.220;2024-01-27T06:49:16;1.45;;;0.90;;
84662;SDS011;74891;59.208;18.220;2024-01-27T06:51:43;1.02;;;0.90;;
84662;SDS011;74891;59.208;18.220;2024-01-27T06:54:09;1.15;;;0.82;;
84662;SDS011;74891;59.208;18.220;2024-01-27T06:56:40;1.38;;;0.80;;
84662;SDS011;74891;59.208;18.220;2024-01-27T06:59:09;1.63;;;0.85;;
84662;SDS011;74891;59.208;18.220;2024-01-27T07:01:37;1.75;;;1.10;;
84662;SDS011;74891;59.208;18.220;2024-01-27T07:04:05;1.90;;;1.05;;
84662;SDS011;74891;59.208;18.220;2024-01-27T07:06:31;1.65;;;1.10;;
84662;SDS011;74891;59.208;18.220;2024-01-27T07:08:56;1.10;;;0.85;;
84662;SDS011;74891;59.208;18.220;2024-01-27T07:11:25;1.83;;;1.10;;
84662;SDS011;74891;59.208;18.220;2024-01-27T07:13:50;2.80;;;0.95;;
84662;SDS011;74891;59.208;18.220;2024-01-27T07:16:15;0.88;;;0.70;;
84662;SDS011;74891;59.208;18.220;2024-01-27T07:18:44;1.73;;;0.80;;
84662;SDS011;74891;59.208;18.220;2024-01-27T07:21:14;3.50;;;1.70;;
84662;SDS011;74891;59.208;18.220;2024-01-27T07:23:43;1.90;;;1.48;;
84662;SDS011;74891;59.208;18.220;2024-01-27T07:26:12;1.80;;;1.20;;
84662;SDS011;74891;59.208;18.220;2024-01-27T07:28:38;1.75;;;1.20;;
84662;SDS011;74891;59.208;18.220;2024-01-27T07:31:04;1.67;;;1.00;;
84662;SDS011;74891;59.208;18.220;2024-01-27T07:33:30;3.08;;;1.20;;
84662;SDS011;74891;59.208;18.220;2024-01-27T07:35:59;1.35;;;0.98;;
84662;SDS011;74891;59.208;18.220;2024-01-27T07:38:28;1.08;;;0.90;;
84662;SDS011;74891;59.208;18.220;2024-01-27T07:40:55;1.50;;;1.20;;
84662;SDS011;74891;59.208;18.220;2024-01-27T07:43:24;1.60;;;1.10;;
84662;SDS011;74891;59.208;18.220;2024-01-27T07:45:53;2.05;;;1.50;;
84662;SDS011;74891;59.208;18.220;2024-01-27T07:50:45;2.80;;;1.40;;
84662;SDS011;74891;59.208;18.220;2024-01-27T07:53:13;2.97;;;1.58;;
84662;SDS011;74891;59.208;18.220;2024-01-27T07:55:40;1.75;;;1.30;;
84662;SDS011;74891;59.208;18.220;2024-01-27T07:58:12;2.35;;;1.10;;
84662;SDS011;74891;59.208;18.220;2024-01-27T08:03:08;1.42;;;0.90;;
84662;SDS011;74891;59.208;18.220;2024-01-27T08:05:36;1.33;;;0.55;;
84662;SDS011;74891;59.208;18.220;2024-01-27T08:08:04;3.40;;;1.15;;
84662;SDS011;74891;59.208;18.220;2024-01-27T08:10:31;2.40;;;1.33;;
84662;SDS011;74891;59.208;18.220;2024-01-27T08:13:05;3.47;;;0.82;;
84662;SDS011;74891;59.208;18.220;2024-01-27T08:15:33;2.35;;;0.88;;
84662;SDS011;74891;59.208;18.220;2024-01-27T08:17:59;2.03;;;0.60;;
84662;SDS011;74891;59.208;18.220;2024-01-27T08:20:24;1.92;;;0.85;;
84662;SDS011;74891;59.208;18.220;2024-01-27T08:22:51;1.42;;;0.80;;
84662;SDS011;74891;59.208;18.220;2024-01-27T08:25:19;1.20;;;0.85;;
84662;SDS011;74891;59.208;18.220;2024-01-27T08:27:44;2.85;;;1.20;;
84662;SDS011;74891;59.208;18.220;2024-01-27T08:30:10;4.15;;;1.10;;
84662;SDS011;74891;59.208;18.220;2024-01-27T08:32:38;0.82;;;0.70;;
84662;SDS011;74891;59.208;18.220;2024-01-27T08:35:03;2.30;;;0.82;;
84662;SDS011;74891;59.208;18.220;2024-01-27T08:37:32;1.60;;;0.85;;
84662;SDS011;74891;59.208;18.220;2024-01-27T08:40:03;1.40;;;0.82;;
84662;SDS011;74891;59.208;18.220;2024-01-27T08:42:33;1.88;;;0.73;;
84662;SDS011;74891;59.208;18.220;2024-01-27T08:44:59;2.72;;;0.85;;
84662;SDS011;74891;59.208;18.220;2024-01-27T08:47:25;1.73;;;0.70;;
84662;SDS011;74891;59.208;18.220;2024-01-27T08:49:51;4.10;;;1.00;;
84662;SDS011;74891;59.208;18.220;2024-01-27T08:52:16;1.73;;;0.60;;
84662;SDS011;74891;59.208;18.220;2024-01-27T08:54:44;3.40;;;0.88;;
84662;SDS011;74891;59.208;18.220;2024-01-27T08:57:16;3.38;;;1.00;;
84662;SDS011;74891;59.208;18.220;2024-01-27T08:59:44;1.25;;;0.60;;
84662;SDS011;74891;59.208;18.220;2024-01-27T09:04:37;2.28;;;0.70;;
84662;SDS011;74891;59.208;18.220;2024-01-27T09:07:05;0.85;;;0.47;;
84662;SDS011;74891;59.208;18.220;2024-01-27T09:09:31;1.52;;;0.63;;
84662;SDS011;74891;59.208;18.220;2024-01-27T09:11:56;1.50;;;0.80;;
84662;SDS011;74891;59.208;18.220;2024-01-27T09:14:25;3.85;;;0.77;;
84662;SDS011;74891;59.208;18.220;2024-01-27T09:16:50;3.45;;;0.90;;
84662;SDS011;74891;59.208;18.220;2024-01-27T09:19:17;1.73;;;0.75;;
84662;SDS011;74891;59.208;18.220;2024-01-27T09:21:43;2.92;;;1.00;;
84662;SDS011;74891;59.208;18.220;2024-01-27T09:24:08;5.63;;;0.93;;
84662;SDS011;74891;59.208;18.220;2024-01-27T09:26:34;3.40;;;0.90;;
84662;SDS011;74891;59.208;18.220;2024-01-27T09:28:59;2.45;;;0.80;;
84662;SDS011;74891;59.208;18.220;2024-01-27T09:31:27;6.10;;;1.10;;
84662;SDS011;74891;59.208;18.220;2024-01-27T09:33:54;10.05;;;1.35;;
84662;SDS011;74891;59.208;18.220;2024-01-27T09:36:19;5.72;;;1.52;;
84662;SDS011;74891;59.208;18.220;2024-01-27T09:38:45;1.98;;;0.70;;
84662;SDS011;74891;59.208;18.220;2024-01-27T09:41:14;2.58;;;0.77;;
84662;SDS011;74891;59.208;18.220;2024-01-27T09:43:41;4.57;;;0.90;;
84662;SDS011;74891;59.208;18.220;2024-01-27T09:46:11;1.98;;;0.80;;
84662;SDS011;74891;59.208;18.220;2024-01-27T09:48:37;3.65;;;1.00;;
84662;SDS011;74891;59.208;18.220;2024-01-27T09:51:07;3.35;;;1.00;;
84662;SDS011;74891;59.208;18.220;2024-01-27T09:53:36;5.60;;;0.90;;
84662;SDS011;74891;59.208;18.220;2024-01-27T09:56:03;4.97;;;1.17;;
84662;SDS011;74891;59.208;18.220;2024-01-27T09:58:33;3.05;;;1.13;;
84662;SDS011;74891;59.208;18.220;2024-01-27T10:01:00;10.07;;;1.88;;
84662;SDS011;74891;59.208;18.220;2024-01-27T10:03:30;6.60;;;1.67;;
84662;SDS011;74891;59.208;18.220;2024-01-27T10:05:57;4.97;;;1.67;;
84662;SDS011;74891;59.208;18.220;2024-01-27T10:08:23;4.28;;;0.80;;
84662;SDS011;74891;59.208;18.220;2024-01-27T10:10:55;3.50;;;1.35;;
84662;SDS011;74891;59.208;18.220;2024-01-27T10:13:21;2.05;;;0.80;;
84662;SDS011;74891;59.208;18.220;2024-01-27T10:16:00;4.32;;;1.15;;
84662;SDS011;74891;59.208;18.220;2024-01-27T10:18:29;5.50;;;1.10;;
84662;SDS011;74891;59.208;18.220;2024-01-27T10:20:55;5.95;;;1.00;;
84662;SDS011;74891;59.208;18.220;2024-01-27T10:23:21;6.32;;;1.30;;
84662;SDS011;74891;59.208;18.220;2024-01-27T10:25:48;4.20;;;1.98;;
84662;SDS011;74891;59.208;18.220;2024-01-27T10:28:14;5.93;;;1.85;;
84662;SDS011;74891;59.208;18.220;2024-01-27T10:30:40;7.43;;;2.55;;
84662;SDS011;74891;59.208;18.220;2024-01-27T10:33:08;9.68;;;1.60;;
84662;SDS011;74891;59.208;18.220;2024-01-27T10:35:35;7.28;;;1.45;;
84662;SDS011;74891;59.208;18.220;2024-01-27T10:38:01;4.68;;;1.55;;
84662;SDS011;74891;59.208;18.220;2024-01-27T10:40:29;1.83;;;1.02;;
84662;SDS011;74891;59.208;18.220;2024-01-27T10:43:04;4.72;;;1.10;;
84662;SDS011;74891;59.208;18.220;2024-01-27T10:45:44;5.30;;;1.08;;
84662;SDS011;74891;59.208;18.220;2024-01-27T10:48:10;6.18;;;1.20;;
84662;SDS011;74891;59.208;18.220;2024-01-27T10:50:40;3.25;;;0.88;;
84662;SDS011;74891;59.208;18.220;2024-01-27T10:53:09;3.75;;;0.90;;
84662;SDS011;74891;59.208;18.220;2024-01-27T10:55:46;3.33;;;0.90;;
84662;SDS011;74891;59.208;18.220;2024-01-27T10:58:13;2.85;;;0.90;;
84662;SDS011;74891;59.208;18.220;2024-01-27T11:00:40;3.20;;;0.82;;
84662;SDS011;74891;59.208;18.220;2024-01-27T11:03:08;4.18;;;1.35;;
84662;SDS011;74891;59.208;18.220;2024-01-27T11:05:36;1.85;;;0.65;;
84662;SDS011;74891;59.208;18.220;2024-01-27T11:08:05;4.68;;;1.73;;
84662;SDS011;74891;59.208;18.220;2024-01-27T11:10:33;4.05;;;0.90;;
84662;SDS011;74891;59.208;18.220;2024-01-27T11:13:02;3.53;;;0.80;;
84662;SDS011;74891;59.208;18.220;2024-01-27T11:15:29;0.82;;;0.63;;
84662;SDS011;74891;59.208;18.220;2024-01-27T11:17:59;4.53;;;0.88;;
84662;SDS011;74891;59.208;18.220;2024-01-27T11:20:30;5.47;;;0.90;;
84662;SDS011;74891;59.208;18.220;2024-01-27T11:23:07;2.42;;;0.70;;
84662;SDS011;74891;59.208;18.220;2024-01-27T11:25:36;3.53;;;0.80;;
84662;SDS011;74891;59.208;18.220;2024-01-27T11:28:10;3.92;;;0.85;;
84662;SDS011;74891;59.208;18.220;2024-01-27T11:30:48;6.20;;;0.80;;
84662;SDS011;74891;59.208;18.220;2024-01-27T11:33:14;4.35;;;0.90;;
84662;SDS011;74891;59.208;18.220;2024-01-27T11:35:40;1.60;;;0.70;;
84662;SDS011;74891;59.208;18.220;2024-01-27T11:38:06;3.92;;;1.15;;
84662;SDS011;74891;59.208;18.220;2024-01-27T11:40:31;2.78;;;0.88;;
84662;SDS011;74891;59.208;18.220;2024-01-27T11:42:58;2.25;;;0.85;;
84662;SDS011;74891;59.208;18.220;2024-01-27T11:45:28;4.93;;;0.85;;
84662;SDS011;74891;59.208;18.220;2024-01-27T11:47:57;2.33;;;0.60;;
84662;SDS011;74891;59.208;18.220;2024-01-27T11:50:23;3.80;;;1.00;;
84662;SDS011;74891;59.208;18.220;2024-01-27T11:52:49;4.35;;;0.77;;
84662;SDS011;74891;59.208;18.220;2024-01-27T11:55:14;8.00;;;1.10;;
84662;SDS011;74891;59.208;18.220;2024-01-27T11:57:40;2.60;;;0.68;;
84662;SDS011;74891;59.208;18.220;2024-01-27T12:00:07;6.38;;;0.85;;
84662;SDS011;74891;59.208;18.220;2024-01-27T12:02:37;5.65;;;1.00;;
84662;SDS011;74891;59.208;18.220;2024-01-27T12:05:07;6.28;;;0.80;;
84662;SDS011;74891;59.208;18.220;2024-01-27T12:07:33;6.18;;;0.85;;
84662;SDS011;74891;59.208;18.220;2024-01-27T12:10:03;6.35;;;0.70;;
84662;SDS011;74891;59.208;18.220;2024-01-27T12:12:32;3.83;;;0.80;;
84662;SDS011;74891;59.208;18.220;2024-01-27T12:15:00;2.40;;;0.80;;
84662;SDS011;74891;59.208;18.220;2024-01-27T12:17:31;3.00;;;0.77;;
84662;SDS011;74891;59.208;18.220;2024-01-27T12:19:57;9.57;;;0.93;;
84662;SDS011;74891;59.208;18.220;2024-01-27T12:24:48;4.68;;;1.08;;
84662;SDS011;74891;59.208;18.220;2024-01-27T12:27:13;6.82;;;1.00;;
84662;SDS011;74891;59.208;18.220;2024-01-27T12:29:42;4.10;;;0.85;;
84662;SDS011;74891;59.208;18.220;2024-01-27T12:34:42;2.22;;;0.80;;
84662;SDS011;74891;59.208;18.220;2024-01-27T12:37:11;3.13;;;0.98;;
84662;SDS011;74891;59.208;18.220;2024-01-27T12:39:42;4.15;;;0.88;;
84662;SDS011;74891;59.208;18.220;2024-01-27T12:42:09;4.65;;;1.08;;
84662;SDS011;74891;59.208;18.220;2024-01-27T12:44:43;3.25;;;1.05;;
84662;SDS011;74891;59.208;18.220;2024-01-27T12:47:15;5.80;;;1.13;;
84662;SDS011;74891;59.208;18.220;2024-01-27T12:49:40;2.35;;;0.80;;
84662;SDS011;74891;59.208;18.220;2024-01-27T12:54:34;3.67;;;0.90;;
84662;SDS011;74891;59.208;18.220;2024-01-27T12:57:03;9.15;;;1.00;;
84662;SDS011;74891;59.208;18.220;2024-01-27T12:59:33;7.75;;;0.95;;
84662;SDS011;74891;59.208;18.220;2024-01-27T13:01:59;2.45;;;0.77;;
84662;SDS011;74891;59.208;18.220;2024-01-27T13:04:25;6.32;;;1.25;;
84662;SDS011;74891;59.208;18.220;2024-01-27T13:06:51;3.93;;;1.13;;
84662;SDS011;74891;59.208;18.220;2024-01-27T13:09:20;5.13;;;1.05;;
84662;SDS011;74891;59.208;18.220;2024-01-27T13:11:45;3.00;;;1.15;;
84662;SDS011;74891;59.208;18.220;2024-01-27T13:14:10;6.63;;;1.45;;
84662;SDS011;74891;59.208;18.220;2024-01-27T13:16:39;5.93;;;1.35;;
84662;SDS011;74891;59.208;18.220;2024-01-27T13:19:08;4.97;;;1.38;;
84662;SDS011;74891;59.208;18.220;2024-01-27T13:21:36;7.70;;;1.63;;
84662;SDS011;74891;59.208;18.220;2024-01-27T13:24:05;3.53;;;1.50;;
84662;SDS011;74891;59.208;18.220;2024-01-27T13:26:34;6.82;;;2.35;;
84662;SDS011;74891;59.208;18.220;2024-01-27T13:29:03;5.93;;;1.60;;
84662;SDS011;74891;59.208;18.220;2024-01-27T13:31:32;8.80;;;1.38;;
84662;SDS011;74891;59.208;18.220;2024-01-27T13:33:58;4.70;;;1.38;;
84662;SDS011;74891;59.208;18.220;2024-01-27T13:36:24;5.03;;;1.17;;
84662;SDS011;74891;59.208;18.220;2024-01-27T13:38:50;5.68;;;0.90;;
84662;SDS011;74891;59.208;18.220;2024-01-27T13:41:16;6.47;;;1.02;;
84662;SDS011;74891;59.208;18.220;2024-01-27T13:43:43;5.30;;;1.60;;
84662;SDS011;74891;59.208;18.220;2024-01-27T13:46:08;5.65;;;1.80;;
84662;SDS011;74891;59.208;18.220;2024-01-27T13:48:36;7.70;;;2.15;;
84662;SDS011;74891;59.208;18.220;2024-01-27T13:51:02;4.65;;;1.33;;
84662;SDS011;74891;59.208;18.220;2024-01-27T13:53:28;5.50;;;0.90;;
84662;SDS011;74891;59.208;18.220;2024-01-27T13:55:56;2.38;;;1.00;;
84662;SDS011;74891;59.208;18.220;2024-01-27T13:58:22;6.15;;;1.23;;
84662;SDS011;74891;59.208;18.220;2024-01-27T14:00:50;4.10;;;0.88;;
84662;SDS011;74891;59.208;18.220;2024-01-27T14:03:16;2.63;;;0.88;;
84662;SDS011;74891;59.208;18.220;2024-01-27T14:05:41;3.40;;;0.90;;
84662;SDS011;74891;59.208;18.220;2024-01-27T14:08:08;7.25;;;1.08;;
84662;SDS011;74891;59.208;18.220;2024-01-27T14:10:35;2.47;;;0.82;;
84662;SDS011;74891;59.208;18.220;2024-01-27T14:13:01;1.80;;;0.77;;
84662;SDS011;74891;59.208;18.220;2024-01-27T14:15:34;2.08;;;0.80;;
84662;SDS011;74891;59.208;18.220;2024-01-27T14:18:02;3.75;;;0.90;;
84662;SDS011;74891;59.208;18.220;2024-01-27T14:20:32;3.30;;;0.95;;
84662;SDS011;74891;59.208;18.220;2024-01-27T14:23:07;4.05;;;1.40;;
84662;SDS011;74891;59.208;18.220;2024-01-27T14:25:38;6.30;;;2.05;;
84662;SDS011;74891;59.208;18.220;2024-01-27T14:28:04;4.47;;;1.80;;
84662;SDS011;74891;59.208;18.220;2024-01-27T14:30:36;4.22;;;1.58;;
84662;SDS011;74891;59.208;18.220;2024-01-27T14:33:02;6.97;;;2.00;;
84662;SDS011;74891;59.208;18.220;2024-01-27T14:35:30;5.80;;;1.63;;
84662;SDS011;74891;59.208;18.220;2024-01-27T14:38:01;5.10;;;1.85;;
84662;SDS011;74891;59.208;18.220;2024-01-27T14:40:27;2.97;;;1.95;;
84662;SDS011;74891;59.208;18.220;2024-01-27T14:42:57;6.97;;;1.73;;
84662;SDS011;74891;59.208;18.220;2024-01-27T14:45:25;5.15;;;1.80;;
84662;SDS011;74891;59.208;18.220;2024-01-27T14:47:54;2.28;;;1.40;;
84662;SDS011;74891;59.208;18.220;2024-01-27T14:50:22;3.78;;;1.77;;
84662;SDS011;74891;59.208;18.220;2024-01-27T14:52:51;2.95;;;1.63;;
84662;SDS011;74891;59.208;18.220;2024-01-27T14:55:17;7.03;;;1.60;;
84662;SDS011;74891;59.208;18.220;2024-01-27T14:57:42;3.05;;;1.33;;
84662;SDS011;74891;59.208;18.220;2024-01-27T15:00:08;4.90;;;1.52;;
84662;SDS011;74891;59.208;18.220;2024-01-27T15:02:34;7.65;;;1.60;;
84662;SDS011;74891;59.208;18.220;2024-01-27T15:05:03;6.10;;;2.22;;
84662;SDS011;74891;59.208;18.220;2024-01-27T15:07:38;6.40;;;2.28;;